Time;durP1;ratioP1;P1;durP2;ratioP2;P2;SDS_P1;SDS_P2;PMS_P1;PMS_P2;Temp;Humidity;BMP_temperature;BMP_pressure;BME280_temperature;BME280_humidity;BME280_pressure;Samples;Min_cycle;Max_cycle;Signal;HPM_P1;HPM_P2
2022/07/18 00:00:23;;;;;;;7.20;2.13;;;15.10;99.90;;;;;;5051182;28;20055;-65
2022/07/18 00:02:50;;;;;;;6.88;2.15;;;14.90;99.90;;;;;;5069399;28;20075;-65
2022/07/18 00:05:16;;;;;;;9.77;2.35;;;15.00;99.90;;;;;;5050086;28;20052;-65
2022/07/18 00:07:42;;;;;;;5.93;2.30;;;15.10;99.90;;;;;;5051069;28;20050;-66
2022/07/18 00:10:07;;;;;;;6.72;2.30;;;15.00;99.90;;;;;;5066004;28;20522;-66
2022/07/18 00:12:33;;;;;;;15.65;2.38;;;14.90;99.90;;;;;;5067744;28;20064;-66
2022/07/18 00:14:59;;;;;;;7.10;2.22;;;14.80;99.90;;;;;;5068414;28;20060;-66
2022/07/18 00:17:24;;;;;;;7.35;2.45;;;14.60;99.90;;;;;;5069079;28;20337;-66
2022/07/18 00:19:50;;;;;;;6.30;2.15;;;14.60;99.90;;;;;;5069046;28;20438;-66
2022/07/18 00:22:16;;;;;;;8.95;2.00;;;14.60;99.90;;;;;;5048118;28;20032;-66
2022/07/18 00:24:41;;;;;;;7.63;2.70;;;14.50;99.90;;;;;;5068705;28;20021;-66
2022/07/18 00:27:07;;;;;;;7.63;2.38;;;14.40;99.90;;;;;;5065402;28;20043;-66
2022/07/18 00:29:37;;;;;;;5.32;1.90;;;14.40;99.90;;;;;;5068687;28;20356;-66
2022/07/18 00:32:04;;;;;;;6.00;1.80;;;14.50;99.90;;;;;;5067946;28;20458;-66
2022/07/18 00:34:30;;;;;;;7.32;2.40;;;14.50;99.90;;;;;;5068566;28;20029;-66
2022/07/18 00:36:56;;;;;;;7.13;2.20;;;14.40;99.90;;;;;;5068408;28;20508;-66
2022/07/18 00:39:21;;;;;;;6.00;2.30;;;14.30;99.90;;;;;;5068380;28;20028;-66
2022/07/18 00:41:48;;;;;;;7.97;2.30;;;14.40;99.90;;;;;;5048353;28;20031;-65
2022/07/18 00:44:19;;;;;;;8.27;2.17;;;14.40;99.90;;;;;;5068008;28;20526;-65
2022/07/18 00:46:44;;;;;;;7.05;2.15;;;14.40;99.90;;;;;;5068489;28;20047;-65
2022/07/18 00:49:10;;;;;;;7.47;1.90;;;14.30;99.90;;;;;;5068083;28;20524;-65
2022/07/18 00:51:38;;;;;;;8.77;2.75;;;14.40;99.90;;;;;;5068334;28;20056;-65
2022/07/18 00:54:04;;;;;;;5.70;1.95;;;14.40;99.90;;;;;;5067689;28;20031;-65
2022/07/18 00:56:29;;;;;;;7.75;2.17;;;14.30;99.90;;;;;;5068599;28;20056;-65
2022/07/18 00:58:55;;;;;;;8.30;2.13;;;14.30;99.90;;;;;;5062828;28;20488;-65
2022/07/18 01:04:05;;;;;;;5.78;2.15;;;14.30;99.90;;;;;;5067496;28;20077;-65
2022/07/18 01:06:30;;;;;;;8.15;2.38;;;14.30;99.90;;;;;;5059736;28;20028;-65
2022/07/18 01:08:57;;;;;;;7.50;2.17;;;14.30;99.90;;;;;;5068388;28;20024;-65
2022/07/18 01:11:23;;;;;;;7.68;2.30;;;14.30;99.90;;;;;;5047300;28;20782;-65
2022/07/18 01:13:50;;;;;;;8.57;2.30;;;14.20;99.90;;;;;;5049618;28;20419;-65
2022/07/18 01:16:17;;;;;;;8.82;2.85;;;14.10;99.90;;;;;;5049585;28;20212;-65
2022/07/18 01:18:47;;;;;;;7.85;2.45;;;14.00;99.90;;;;;;5067963;28;20078;-65
2022/07/18 01:21:14;;;;;;;7.50;2.20;;;14.00;99.90;;;;;;5067000;28;20059;-65
2022/07/18 01:23:40;;;;;;;7.32;2.10;;;14.00;99.90;;;;;;5067720;28;20498;-65
2022/07/18 01:26:05;;;;;;;7.00;2.17;;;13.80;99.90;;;;;;5067280;28;20024;-65
2022/07/18 01:28:31;;;;;;;6.90;2.70;;;13.80;99.90;;;;;;5049532;28;20021;-65
2022/07/18 01:30:57;;;;;;;6.50;2.20;;;13.70;99.90;;;;;;5067572;28;20105;-65
2022/07/18 01:33:22;;;;;;;6.30;2.13;;;13.70;99.90;;;;;;5045696;28;20021;-65
2022/07/18 01:35:48;;;;;;;6.22;1.90;;;13.50;99.90;;;;;;5067449;28;20021;-65
2022/07/18 01:38:14;;;;;;;6.57;2.80;;;13.40;99.90;;;;;;5066763;28;20028;-65
2022/07/18 01:40:40;;;;;;;7.13;2.22;;;13.30;99.90;;;;;;5067524;28;20042;-65
2022/07/18 01:43:06;;;;;;;7.65;2.42;;;13.40;99.90;;;;;;5065384;28;20492;-65
2022/07/18 01:45:31;;;;;;;7.68;2.10;;;13.70;99.90;;;;;;5065029;28;20034;-65
2022/07/18 01:47:57;;;;;;;6.53;2.28;;;13.70;99.90;;;;;;5067477;28;20476;-65
2022/07/18 01:50:23;;;;;;;9.05;2.17;;;13.60;99.90;;;;;;5048309;28;20021;-65
2022/07/18 01:52:48;;;;;;;6.60;2.30;;;13.50;99.90;;;;;;5067573;28;20008;-65
2022/07/18 01:55:14;;;;;;;6.50;2.45;;;13.40;99.90;;;;;;5066846;28;20017;-65
2022/07/18 01:57:40;;;;;;;5.78;2.13;;;13.30;99.90;;;;;;5067377;28;20070;-65
2022/07/18 02:00:09;;;;;;;7.05;2.38;;;13.20;99.90;;;;;;5066526;28;20141;-65
2022/07/18 02:02:34;;;;;;;7.78;2.50;;;13.20;99.90;;;;;;5067223;28;20024;-65
2022/07/18 02:05:00;;;;;;;15.18;3.33;;;13.10;99.90;;;;;;5048343;28;20480;-65
2022/07/18 02:07:36;;;;;;;8.02;3.00;;;13.10;99.90;;;;;;5067035;28;20031;-65
2022/07/18 02:10:13;;;;;;;10.00;3.10;;;13.10;99.90;;;;;;5048426;28;20036;-65
2022/07/18 02:12:39;;;;;;;7.88;3.00;;;13.20;99.90;;;;;;5063618;28;20112;-65
2022/07/18 02:15:07;;;;;;;8.45;2.78;;;13.10;99.90;;;;;;5066665;28;20132;-65
2022/07/18 02:17:33;;;;;;;9.10;3.40;;;13.20;99.90;;;;;;5066105;28;20024;-65
2022/07/18 02:19:58;;;;;;;7.35;3.15;;;13.20;99.90;;;;;;5067045;28;20052;-65
2022/07/18 02:22:24;;;;;;;9.13;3.13;;;13.20;99.90;;;;;;5066795;28;20431;-65
2022/07/18 02:24:51;;;;;;;12.45;3.20;;;13.10;99.90;;;;;;5066877;28;20029;-65
2022/07/18 02:27:17;;;;;;;9.13;3.30;;;13.10;99.90;;;;;;5066667;28;20024;-65
2022/07/18 02:29:43;;;;;;;9.20;3.40;;;13.20;99.90;;;;;;5066891;28;20503;-65
2022/07/18 02:32:09;;;;;;;11.45;4.10;;;13.20;99.90;;;;;;5048738;28;20060;-65
2022/07/18 02:34:35;;;;;;;11.85;4.07;;;13.20;99.90;;;;;;5048866;28;20016;-65
2022/07/18 02:37:01;;;;;;;13.35;4.30;;;13.30;99.90;;;;;;5066903;28;20486;-65
2022/07/18 02:39:27;;;;;;;10.43;3.80;;;13.30;99.90;;;;;;5048738;28;20059;-65
2022/07/18 02:41:52;;;;;;;9.38;3.70;;;13.40;99.90;;;;;;5065485;28;20091;-65
2022/07/18 02:44:18;;;;;;;15.52;4.30;;;13.30;99.90;;;;;;5067377;28;20531;-65
2022/07/18 02:46:44;;;;;;;10.38;4.07;;;13.10;99.90;;;;;;5054664;28;20020;-65
2022/07/18 02:49:09;;;;;;;9.68;4.30;;;13.00;99.90;;;;;;5051957;28;20510;-65
2022/07/18 02:51:35;;;;;;;8.40;3.80;;;12.90;99.90;;;;;;5070691;28;20021;-65
2022/07/18 02:54:01;;;;;;;12.45;4.03;;;12.90;99.90;;;;;;5070259;28;20021;-65
2022/07/18 02:56:27;;;;;;;13.43;3.35;;;12.90;99.90;;;;;;5052552;28;20028;-65
2022/07/18 02:58:52;;;;;;;9.63;4.00;;;13.00;99.90;;;;;;5070551;28;20029;-65
2022/07/18 03:01:18;;;;;;;10.40;3.35;;;13.10;99.90;;;;;;5051545;28;20455;-65
2022/07/18 03:03:43;;;;;;;9.02;3.60;;;13.00;99.90;;;;;;5066685;28;20032;-65
2022/07/18 03:06:09;;;;;;;10.10;3.30;;;12.80;99.90;;;;;;5069752;28;20059;-65
2022/07/18 03:08:35;;;;;;;8.52;3.60;;;12.70;99.90;;;;;;5052476;28;20384;-65
2022/07/18 03:11:00;;;;;;;8.75;3.22;;;12.60;99.90;;;;;;5070007;28;20547;-65
2022/07/18 03:13:26;;;;;;;10.73;3.70;;;12.80;99.90;;;;;;5049684;28;20392;-65
2022/07/18 03:15:52;;;;;;;8.70;3.33;;;13.00;99.90;;;;;;5051919;28;20021;-65
2022/07/18 03:18:17;;;;;;;10.82;2.95;;;13.00;99.90;;;;;;5069618;28;20088;-65
2022/07/18 03:20:43;;;;;;;9.13;3.13;;;13.00;99.90;;;;;;5069828;28;20039;-65
2022/07/18 03:23:09;;;;;;;7.32;2.42;;;13.00;99.90;;;;;;5069185;28;20031;-65
2022/07/18 03:25:35;;;;;;;6.50;2.40;;;13.30;99.90;;;;;;5069454;28;20024;-65
2022/07/18 03:28:01;;;;;;;9.70;2.83;;;13.50;99.90;;;;;;5069396;28;20020;-65
2022/07/18 03:30:27;;;;;;;8.88;2.63;;;13.60;99.90;;;;;;5069127;28;20078;-65
2022/07/18 03:32:52;;;;;;;6.18;2.47;;;13.50;99.90;;;;;;5051277;28;20024;-65
2022/07/18 03:35:18;;;;;;;7.53;2.40;;;13.40;99.90;;;;;;5050110;28;20112;-65
2022/07/18 03:37:44;;;;;;;8.93;2.63;;;13.30;99.90;;;;;;5050537;28;20048;-65
2022/07/18 03:40:10;;;;;;;7.40;2.80;;;13.30;99.90;;;;;;5050141;28;20035;-65
2022/07/18 03:42:39;;;;;;;7.82;2.38;;;13.20;99.90;;;;;;5067829;28;20115;-65
2022/07/18 03:45:07;;;;;;;7.70;2.75;;;13.30;99.90;;;;;;5067822;28;20556;-65
2022/07/18 03:47:33;;;;;;;13.15;2.42;;;13.30;99.90;;;;;;5070539;28;20016;-65
2022/07/18 03:49:59;;;;;;;8.00;2.60;;;13.20;99.90;;;;;;5051606;28;20033;-65
2022/07/18 03:52:24;;;;;;;10.15;2.80;;;13.10;99.90;;;;;;5068680;28;20032;-65
2022/07/18 03:54:50;;;;;;;11.18;2.60;;;13.00;99.90;;;;;;5069381;28;20055;-65
2022/07/18 03:57:16;;;;;;;7.28;2.15;;;12.90;99.90;;;;;;5069212;28;20100;-65
2022/07/18 03:59:41;;;;;;;7.60;2.42;;;12.90;99.90;;;;;;5051129;28;20045;-65
2022/07/18 04:02:07;;;;;;;7.80;2.40;;;12.90;99.90;;;;;;5064408;28;20040;-65
2022/07/18 04:04:33;;;;;;;7.55;2.50;;;13.00;99.90;;;;;;5066745;28;20016;-65
2022/07/18 04:07:01;;;;;;;8.60;2.22;;;13.00;99.90;;;;;;5069126;28;20041;-65
2022/07/18 04:09:27;;;;;;;8.05;2.50;;;13.00;99.90;;;;;;5048523;28;20025;-65
2022/07/18 04:11:53;;;;;;;7.90;2.55;;;13.00;99.90;;;;;;5066905;28;20457;-65
2022/07/18 04:14:19;;;;;;;7.25;2.40;;;13.10;99.90;;;;;;5064041;28;20091;-65
2022/07/18 04:16:44;;;;;;;7.15;2.63;;;13.20;99.90;;;;;;5067846;28;20422;-65
2022/07/18 04:19:10;;;;;;;5.97;2.20;;;13.20;99.90;;;;;;5064119;28;20024;-65
2022/07/18 04:21:36;;;;;;;7.57;2.13;;;13.30;99.90;;;;;;5049822;28;20020;-65
2022/07/18 04:24:02;;;;;;;6.93;2.53;;;13.30;99.90;;;;;;5068442;28;20384;-65
2022/07/18 04:26:27;;;;;;;7.38;2.60;;;13.40;99.90;;;;;;5049496;28;20026;-65
2022/07/18 04:28:53;;;;;;;8.50;2.47;;;13.60;99.90;;;;;;5068436;28;20050;-65
2022/07/18 04:31:19;;;;;;;8.60;2.60;;;13.70;99.90;;;;;;5067300;28;20032;-65
2022/07/18 04:33:45;;;;;;;10.50;2.63;;;13.70;99.90;;;;;;5067933;28;20070;-65
2022/07/18 04:36:11;;;;;;;8.00;2.35;;;13.80;99.90;;;;;;5066917;28;20400;-65
2022/07/18 04:38:37;;;;;;;8.02;2.40;;;13.90;99.90;;;;;;5049560;28;20024;-65
2022/07/18 04:41:04;;;;;;;10.93;2.75;;;14.00;99.90;;;;;;5049337;28;20078;-65
2022/07/18 04:43:30;;;;;;;7.38;2.17;;;14.10;99.90;;;;;;5064523;28;20375;-65
2022/07/18 04:45:56;;;;;;;10.25;2.50;;;14.20;99.90;;;;;;5050151;28;20078;-66
2022/07/18 04:48:22;;;;;;;8.10;2.58;;;14.30;99.90;;;;;;5049604;28;20456;-65
2022/07/18 04:50:48;;;;;;;7.47;2.25;;;14.30;99.90;;;;;;5047967;28;20112;-66
2022/07/18 04:53:13;;;;;;;9.32;2.33;;;14.40;99.90;;;;;;5047498;28;20036;-66
2022/07/18 04:55:39;;;;;;;6.88;2.42;;;14.60;99.90;;;;;;5066672;28;20025;-65
2022/07/18 04:58:05;;;;;;;8.32;2.35;;;14.70;99.90;;;;;;5067237;28;20024;-65
2022/07/18 05:00:31;;;;;;;7.07;2.78;;;14.80;99.90;;;;;;5063461;28;20060;-65
2022/07/18 05:02:57;;;;;;;6.50;2.10;;;14.90;99.90;;;;;;5049856;28;20020;-65
2022/07/18 05:05:25;;;;;;;7.70;2.20;;;15.00;99.90;;;;;;5067210;28;20695;-65
2022/07/18 05:07:50;;;;;;;7.20;2.30;;;15.10;99.90;;;;;;5048823;28;20031;-65
2022/07/18 05:10:18;;;;;;;7.18;2.35;;;15.20;99.90;;;;;;5066955;28;20024;-65
2022/07/18 05:12:45;;;;;;;6.75;2.20;;;15.30;99.90;;;;;;5061232;28;20044;-65
2022/07/18 05:15:14;;;;;;;8.73;2.30;;;15.50;99.90;;;;;;5061930;28;20040;-66
2022/07/18 05:17:40;;;;;;;8.05;2.58;;;15.60;99.90;;;;;;5066288;28;20471;-66
2022/07/18 05:20:09;;;;;;;7.57;2.10;;;15.80;99.90;;;;;;5067288;28;20104;-66
2022/07/18 05:22:35;;;;;;;7.45;2.30;;;15.90;99.90;;;;;;5048569;28;20021;-66
2022/07/18 05:25:03;;;;;;;7.25;2.30;;;16.10;99.90;;;;;;5066791;28;20020;-66
2022/07/18 05:27:29;;;;;;;9.68;2.40;;;16.20;99.90;;;;;;5047898;28;20105;-65
2022/07/18 05:29:54;;;;;;;8.23;2.05;;;16.50;99.90;;;;;;5067495;28;20024;-65
2022/07/18 05:32:20;;;;;;;8.70;2.22;;;16.50;99.90;;;;;;5048916;28;20024;-65
2022/07/18 05:34:46;;;;;;;6.43;2.10;;;16.60;99.90;;;;;;5067204;28;20048;-65
2022/07/18 05:37:11;;;;;;;6.88;2.15;;;16.60;99.90;;;;;;5066634;28;20473;-65
2022/07/18 05:39:37;;;;;;;7.13;2.45;;;16.70;99.90;;;;;;5067041;28;20056;-64
2022/07/18 05:42:04;;;;;;;8.05;2.25;;;16.70;99.90;;;;;;5065883;28;20040;-63
2022/07/18 05:44:29;;;;;;;9.85;2.20;;;16.80;99.90;;;;;;5064160;28;20038;-63
2022/07/18 05:46:55;;;;;;;6.07;2.08;;;16.90;99.90;;;;;;5046104;28;20021;-63
2022/07/18 05:49:21;;;;;;;10.63;2.25;;;17.10;99.90;;;;;;5062661;28;20127;-63
2022/07/18 05:51:46;;;;;;;8.18;1.85;;;17.30;99.90;;;;;;5067165;28;20028;-63
2022/07/18 05:54:18;;;;;;;4.82;2.00;;;17.40;99.90;;;;;;5064075;28;20029;-63
2022/07/18 05:56:45;;;;;;;6.25;1.73;;;17.60;99.90;;;;;;5046283;28;20071;-63
2022/07/18 05:59:10;;;;;;;5.90;1.50;;;17.80;99.90;;;;;;5040664;28;20425;-63
2022/07/18 06:01:36;;;;;;;5.28;1.80;;;18.10;99.90;;;;;;5063230;28;20082;-63
2022/07/18 06:04:02;;;;;;;5.47;1.80;;;18.30;99.90;;;;;;5046322;28;20078;-63
2022/07/18 06:06:27;;;;;;;4.40;1.60;;;18.50;99.90;;;;;;5060026;28;20182;-63
2022/07/18 06:08:53;;;;;;;5.45;1.73;;;18.60;99.90;;;;;;5062949;28;20036;-63
2022/07/18 06:11:19;;;;;;;7.57;1.60;;;18.80;99.90;;;;;;5061684;28;20538;-63
2022/07/18 06:13:44;;;;;;;6.50;1.70;;;19.00;99.90;;;;;;5046248;28;20383;-63
2022/07/18 06:16:10;;;;;;;6.45;1.70;;;19.20;99.50;;;;;;5064806;28;20058;-63
2022/07/18 06:18:36;;;;;;;5.85;1.90;;;19.40;99.30;;;;;;5065780;28;20025;-63
2022/07/18 06:21:02;;;;;;;6.15;1.70;;;19.50;98.90;;;;;;5050934;28;20086;-63
2022/07/18 06:23:28;;;;;;;5.53;1.67;;;19.60;98.90;;;;;;5060786;28;20021;-63
2022/07/18 06:25:55;;;;;;;5.88;1.70;;;19.70;98.40;;;;;;5065246;28;20104;-63
2022/07/18 06:28:20;;;;;;;7.88;2.05;;;19.80;98.10;;;;;;5065571;28;20067;-63
2022/07/18 06:30:46;;;;;;;8.77;1.63;;;19.90;97.90;;;;;;5068868;28;20432;-63
2022/07/18 06:33:13;;;;;;;8.05;1.80;;;20.10;97.60;;;;;;5050453;28;20465;-63
2022/07/18 06:35:39;;;;;;;6.65;1.67;;;20.30;97.00;;;;;;5050454;28;20107;-63
2022/07/18 06:38:05;;;;;;;8.85;1.88;;;20.50;95.80;;;;;;5068633;28;20068;-63
2022/07/18 06:40:31;;;;;;;7.93;1.77;;;20.70;95.30;;;;;;5068082;28;20025;-63
2022/07/18 06:42:56;;;;;;;8.18;1.60;;;20.90;95.10;;;;;;5048780;28;20024;-63
2022/07/18 06:45:22;;;;;;;4.72;1.58;;;21.00;94.50;;;;;;5068178;28;20044;-64
2022/07/18 06:47:48;;;;;;;6.63;1.75;;;21.20;94.70;;;;;;5068573;28;20097;-63
2022/07/18 06:50:15;;;;;;;7.47;1.70;;;21.30;93.80;;;;;;5067787;28;20029;-63
2022/07/18 06:52:42;;;;;;;5.72;1.70;;;21.40;93.40;;;;;;5050081;28;20422;-63
2022/07/18 06:55:09;;;;;;;5.40;1.35;;;21.50;93.50;;;;;;5068239;28;20099;-63
2022/07/18 06:57:35;;;;;;;9.68;1.67;;;21.70;93.10;;;;;;5067960;28;20017;-63
2022/07/18 07:00:00;;;;;;;8.18;1.70;;;21.90;93.20;;;;;;5068526;28;20186;-63
2022/07/18 07:02:26;;;;;;;5.03;1.70;;;22.00;92.90;;;;;;5060957;28;20032;-63
2022/07/18 07:04:52;;;;;;;8.95;1.77;;;22.20;92.80;;;;;;5068310;28;20049;-63
2022/07/18 07:07:18;;;;;;;6.20;1.70;;;22.20;92.80;;;;;;5067520;28;20024;-63
2022/07/18 07:09:44;;;;;;;4.78;1.30;;;22.40;91.50;;;;;;5049878;28;20024;-63
2022/07/18 07:12:10;;;;;;;5.82;1.50;;;22.50;91.60;;;;;;5066096;28;20044;-63
2022/07/18 07:14:36;;;;;;;7.65;1.70;;;22.60;90.50;;;;;;5049091;28;20124;-63
2022/07/18 07:17:02;;;;;;;5.95;1.42;;;22.70;90.50;;;;;;5049851;28;20099;-63
2022/07/18 07:19:28;;;;;;;6.60;1.60;;;22.90;89.70;;;;;;5048747;28;20021;-63
2022/07/18 07:21:54;;;;;;;5.22;1.60;;;23.00;88.90;;;;;;5060301;28;20070;-63
2022/07/18 07:24:19;;;;;;;7.57;1.60;;;23.10;87.90;;;;;;5067308;28;20120;-63
2022/07/18 07:26:45;;;;;;;9.30;1.73;;;23.10;87.80;;;;;;5068111;28;20024;-63
2022/07/18 07:29:11;;;;;;;9.02;1.83;;;23.20;88.10;;;;;;5067968;28;20028;-63
2022/07/18 07:31:36;;;;;;;4.40;1.30;;;23.30;87.60;;;;;;5066237;28;20032;-63
2022/07/18 07:34:02;;;;;;;5.95;1.70;;;23.50;87.00;;;;;;5049715;28;20025;-63
2022/07/18 07:36:27;;;;;;;5.05;1.52;;;23.50;86.60;;;;;;5063443;28;20024;-63
2022/07/18 07:38:54;;;;;;;8.18;1.65;;;23.50;84.90;;;;;;5067583;28;20425;-63
2022/07/18 07:41:19;;;;;;;8.38;1.65;;;23.70;85.90;;;;;;5065238;28;20035;-63
2022/07/18 07:43:45;;;;;;;6.60;1.60;;;23.80;86.40;;;;;;5049053;28;20341;-63
2022/07/18 07:46:11;;;;;;;5.93;1.40;;;23.80;85.70;;;;;;5067877;28;20434;-63
2022/07/18 07:48:38;;;;;;;5.82;1.48;;;24.00;84.30;;;;;;5048620;28;20632;-63
2022/07/18 07:51:03;;;;;;;8.13;1.73;;;24.10;84.30;;;;;;5067363;28;20043;-63
2022/07/18 07:53:29;;;;;;;9.95;1.70;;;24.30;84.70;;;;;;5066745;28;20040;-64
2022/07/18 07:55:55;;;;;;;5.82;1.60;;;24.60;84.70;;;;;;5067618;28;20020;-64
2022/07/18 07:58:20;;;;;;;5.00;1.52;;;24.70;83.90;;;;;;5067093;28;20024;-63
2022/07/18 08:00:46;;;;;;;5.70;1.42;;;24.60;82.80;;;;;;5066724;28;20044;-63
2022/07/18 08:03:12;;;;;;;9.63;1.90;;;24.70;83.70;;;;;;5048994;28;20032;-64
2022/07/18 08:05:47;;;;;;;7.38;1.60;;;24.90;82.50;;;;;;5066292;28;20032;-67
2022/07/18 08:08:13;;;;;;;5.18;1.40;;;25.00;82.30;;;;;;5067314;28;20104;-67
2022/07/18 08:10:39;;;;;;;7.00;1.40;;;25.00;81.80;;;;;;5066792;28;20329;-67
2022/07/18 08:13:05;;;;;;;8.73;1.77;;;25.20;81.40;;;;;;5065129;28;20165;-67
2022/07/18 08:15:31;;;;;;;7.38;1.48;;;25.40;81.20;;;;;;5048010;28;20024;-67
2022/07/18 08:17:56;;;;;;;6.43;1.50;;;25.60;81.10;;;;;;5048802;28;20099;-67
2022/07/18 08:20:23;;;;;;;9.57;1.50;;;26.10;80.00;;;;;;5066448;28;20034;-66
2022/07/18 08:23:02;;;;;;;8.15;1.30;;;26.40;79.60;;;;;;5066702;28;20048;-66
2022/07/18 08:25:30;;;;;;;12.10;1.80;;;26.80;77.70;;;;;;5066272;28;20518;-66
2022/07/18 08:27:57;;;;;;;6.53;1.70;;;27.10;77.40;;;;;;5066775;28;20055;-67
2022/07/18 08:30:23;;;;;;;5.47;1.40;;;27.70;76.40;;;;;;5065994;28;20036;-67
2022/07/18 08:32:49;;;;;;;6.97;1.20;;;27.90;75.10;;;;;;5066588;28;20027;-67
2022/07/18 08:35:15;;;;;;;7.65;1.40;;;27.90;73.40;;;;;;5066406;28;20024;-67
2022/07/18 08:37:40;;;;;;;6.28;1.40;;;27.80;74.00;;;;;;5065865;28;20024;-67
2022/07/18 08:40:08;;;;;;;7.15;1.40;;;28.20;73.40;;;;;;5063931;28;20024;-67
2022/07/18 08:42:34;;;;;;;7.82;1.42;;;28.30;72.10;;;;;;5063219;28;20032;-67
2022/07/18 08:45:00;;;;;;;5.95;1.60;;;28.30;71.90;;;;;;5066266;28;20082;-67
2022/07/18 08:47:29;;;;;;;6.38;1.60;;;28.50;71.90;;;;;;5065748;28;20028;-67
2022/07/18 08:49:55;;;;;;;5.55;1.55;;;28.80;71.40;;;;;;5066470;28;20377;-67
2022/07/18 08:52:22;;;;;;;8.63;1.60;;;28.80;71.00;;;;;;5065392;28;20040;-67
2022/07/18 08:54:50;;;;;;;4.97;1.40;;;29.00;70.20;;;;;;5066061;28;20021;-68
2022/07/18 08:57:17;;;;;;;6.00;1.50;;;29.10;70.10;;;;;;5066112;28;20047;-67
2022/07/18 08:59:43;;;;;;;4.88;1.38;;;29.70;69.80;;;;;;5065391;28;20124;-67
2022/07/18 09:02:09;;;;;;;5.45;1.25;;;30.10;68.20;;;;;;5065872;28;20021;-67
2022/07/18 09:04:37;;;;;;;6.90;1.42;;;30.40;67.40;;;;;;5065265;28;20043;-67
2022/07/18 09:07:04;;;;;;;7.35;1.50;;;30.60;67.20;;;;;;5065867;28;20017;-68
2022/07/18 09:09:30;;;;;;;4.47;1.30;;;31.10;64.60;;;;;;5062177;28;20656;-68
2022/07/18 09:12:01;;;;;;;4.82;1.40;;;31.00;65.00;;;;;;5064403;28;20044;-67
2022/07/18 09:14:35;;;;;;;3.88;1.25;;;30.40;64.30;;;;;;5064367;28;20055;-67
2022/07/18 09:17:02;;;;;;;4.78;1.45;;;30.30;64.40;;;;;;5047785;28;20109;-67
2022/07/18 09:19:27;;;;;;;3.75;1.40;;;30.60;63.90;;;;;;5065062;28;20437;-67
2022/07/18 09:21:53;;;;;;;7.78;1.50;;;31.00;63.40;;;;;;5062907;28;20053;-67
2022/07/18 09:24:19;;;;;;;4.82;1.40;;;31.10;63.40;;;;;;5065495;28;20051;-68
2022/07/18 09:26:46;;;;;;;9.50;1.70;;;31.30;63.30;;;;;;5065404;28;20028;-67
2022/07/18 09:29:16;;;;;;;6.00;1.40;;;31.60;63.00;;;;;;5065699;28;20055;-68
2022/07/18 09:31:49;;;;;;;7.20;1.33;;;31.90;60.30;;;;;;5064730;28;20179;-68
2022/07/18 09:34:40;;;;;;;5.40;1.23;;;32.10;60.80;;;;;;5065368;28;20044;-68
2022/07/18 09:37:11;;;;;;;5.70;1.50;;;32.40;60.10;;;;;;5065633;28;20088;-68
2022/07/18 09:39:37;;;;;;;5.00;1.48;;;32.40;60.30;;;;;;5064898;28;20024;-68
2022/07/18 09:42:17;;;;;;;4.15;1.38;;;32.50;59.70;;;;;;5063346;28;20028;-68
2022/07/18 09:44:42;;;;;;;5.25;1.60;;;33.10;57.50;;;;;;5064874;28;20052;-68
2022/07/18 09:47:09;;;;;;;4.57;1.63;;;32.80;58.40;;;;;;5065317;28;20463;-68
2022/07/18 09:49:36;;;;;;;7.03;1.80;;;32.80;57.30;;;;;;5064659;28;20471;-68
2022/07/18 09:52:09;;;;;;;5.78;1.58;;;32.90;56.90;;;;;;5064343;28;20012;-68
2022/07/18 09:54:42;;;;;;;4.47;1.50;;;33.00;56.10;;;;;;5064337;28;20115;-68
2022/07/18 09:57:09;;;;;;;4.32;1.50;;;32.80;57.10;;;;;;5062075;28;20477;-68
2022/07/18 09:59:36;;;;;;;4.45;1.50;;;33.20;56.90;;;;;;5064739;28;20063;-69
2022/07/18 10:02:04;;;;;;;5.95;1.50;;;33.50;56.20;;;;;;5062824;28;20029;-68
2022/07/18 10:04:30;;;;;;;5.85;1.52;;;33.70;55.80;;;;;;5063183;28;20107;-67
2022/07/18 10:06:56;;;;;;;5.15;1.30;;;33.80;55.60;;;;;;5046874;28;20059;-68
2022/07/18 10:09:22;;;;;;;4.53;1.55;;;33.80;54.60;;;;;;5063882;28;20013;-68
2022/07/18 10:11:48;;;;;;;5.82;1.50;;;33.90;54.50;;;;;;5063445;28;20094;-68
2022/07/18 10:14:14;;;;;;;4.28;1.50;;;34.20;55.20;;;;;;5065343;28;20116;-68
2022/07/18 10:16:41;;;;;;;6.90;1.65;;;34.20;54.20;;;;;;5064526;28;20183;-68
2022/07/18 10:19:07;;;;;;;;;;;34.60;53.00;;;;;;5063655;28;20233;-68
2022/07/18 10:21:33;;;;;;;11.35;2.45;;;34.10;52.70;;;;;;5064234;28;20259;-68
2022/07/18 10:24:01;;;;;;;4.40;1.60;;;33.90;52.40;;;;;;5065059;28;20532;-68
2022/07/18 10:26:27;;;;;;;3.67;1.40;;;34.40;52.50;;;;;;5064050;28;20423;-68
2022/07/18 10:28:59;;;;;;;;;;;34.40;53.30;;;;;;5061340;28;20003;-68
2022/07/18 10:31:24;;;;;;;;;;;34.80;51.70;;;;;;5064108;28;20196;-68
2022/07/18 10:33:50;;;;;;;;;;;35.00;52.10;;;;;;5062444;28;19904;-68
2022/07/18 10:36:17;;;;;;;;;;;34.60;52.10;;;;;;5064932;28;20281;-69
2022/07/18 10:39:03;;;;;;;;;;;34.70;52.30;;;;;;5064690;28;19946;-68
2022/07/18 10:41:28;;;;;;;;;;;34.60;52.30;;;;;;5056313;28;20575;-68
2022/07/18 10:43:54;;;;;;;;;;;35.00;51.20;;;;;;5060572;28;19912;-68
2022/07/18 10:46:20;;;;;;;;;;;35.50;51.80;;;;;;5065238;28;19920;-68
2022/07/18 10:48:49;;;;;;;;;;;35.70;50.70;;;;;;5064362;28;19908;-68
2022/07/18 10:51:15;;;;;;;;;;;34.70;51.40;;;;;;5065052;28;19913;-68
2022/07/18 10:53:57;;;;;;;;;;;34.10;51.10;;;;;;5064691;28;20065;-68
2022/07/18 10:56:25;;;;;;;;;;;34.70;51.50;;;;;;5062131;28;19909;-68
2022/07/18 10:58:51;;;;;;;;;;;35.20;51.40;;;;;;5065107;28;19959;-68
2022/07/18 11:01:17;;;;;;;;;;;34.90;50.60;;;;;;5064992;28;19912;-68
2022/07/18 11:03:42;;;;;;;;;;;35.00;51.10;;;;;;5064377;28;20436;-68
2022/07/18 11:06:08;;;;;;;;;;;35.60;50.80;;;;;;5063843;28;19955;-68
2022/07/18 11:08:34;;;;;;;;;;;36.00;50.10;;;;;;5068189;28;19909;-68
2022/07/18 11:11:02;;;;;;;;;;;36.10;49.20;;;;;;5068473;28;19924;-68
2022/07/18 11:13:32;;;;;;;;;;;36.50;49.70;;;;;;5066142;28;19912;-68
2022/07/18 11:16:06;;;;;;;;;;;36.50;49.40;;;;;;5050511;28;19912;-69
2022/07/18 11:18:53;;;;;;;6.35;1.63;;;36.50;49.90;;;;;;5066408;28;19967;-69
2022/07/18 11:21:24;;;;;;;6.85;2.00;;;37.50;49.40;;;;;;5064089;28;20051;-68
2022/07/18 11:24:14;;;;;;;4.28;1.45;;;37.30;49.10;;;;;;5067667;28;20028;-68
2022/07/18 11:26:46;;;;;;;4.60;1.60;;;36.70;48.20;;;;;;5066248;28;20023;-68
2022/07/18 11:29:14;;;;;;;7.25;1.70;;;36.80;48.90;;;;;;5064389;28;20027;-68
2022/07/18 11:31:47;;;;;;;6.43;1.60;;;36.60;49.00;;;;;;5066885;28;20044;-69
2022/07/18 11:34:13;;;;;;;3.83;1.42;;;36.80;49.40;;;;;;5068004;28;20149;-69
2022/07/18 11:36:41;;;;;;;6.22;1.65;;;37.50;48.00;;;;;;5066867;28;20111;-69
2022/07/18 11:39:07;;;;;;;8.30;1.90;;;37.70;48.30;;;;;;5063966;28;20036;-69
2022/07/18 11:41:35;;;;;;;4.85;1.33;;;37.50;48.10;;;;;;5065209;28;20032;-68
2022/07/18 11:44:01;;;;;;;5.97;1.70;;;37.30;47.90;;;;;;5065118;28;20058;-68
2022/07/18 11:46:27;;;;;;;6.88;1.80;;;37.40;48.50;;;;;;5048966;28;20085;-68
2022/07/18 11:49:03;;;;;;;5.72;1.77;;;36.40;48.40;;;;;;5067508;28;20031;-68
2022/07/18 11:51:38;;;;;;;6.10;1.60;;;35.90;48.40;;;;;;5063448;28;20497;-68
2022/07/18 11:54:04;;;;;;;5.97;1.73;;;36.50;49.00;;;;;;5067461;28;20020;-68
2022/07/18 11:56:30;;;;;;;3.85;1.55;;;37.00;48.20;;;;;;5066931;28;20028;-69
2022/07/18 11:58:57;;;;;;;4.88;1.75;;;37.60;47.90;;;;;;5043563;28;20078;-69
2022/07/18 12:01:32;;;;;;;6.55;1.50;;;37.40;47.50;;;;;;5046855;28;20024;-69
2022/07/18 12:03:59;;;;;;;5.65;1.48;;;37.90;47.30;;;;;;5029239;28;20351;-69
2022/07/18 12:06:27;;;;;;;3.78;1.30;;;38.10;47.40;;;;;;5046551;28;20029;-68
2022/07/18 12:09:03;;;;;;;6.30;1.70;;;37.20;47.40;;;;;;5046199;28;20417;-69
2022/07/18 12:11:38;;;;;;;4.68;1.50;;;38.10;47.30;;;;;;5023553;28;20304;-69
2022/07/18 12:14:06;;;;;;;5.38;1.45;;;38.80;46.60;;;;;;5047034;28;20485;-69
2022/07/18 12:16:36;;;;;;;4.65;1.60;;;39.30;47.00;;;;;;5046098;28;20021;-68
2022/07/18 12:19:24;;;;;;;4.78;1.50;;;39.30;46.20;;;;;;5019952;28;20024;-68
2022/07/18 12:22:03;;;;;;;4.43;1.60;;;39.60;46.10;;;;;;5046924;28;20040;-69
2022/07/18 12:24:41;;;;;;;5.20;1.63;;;39.20;46.80;;;;;;5046687;28;20116;-69
2022/07/18 12:27:21;;;;;;;5.82;1.60;;;38.60;46.50;;;;;;5043923;28;20445;-69
2022/07/18 12:30:18;;;;;;;6.57;1.63;;;38.60;47.50;;;;;;5046852;28;20095;-69
2022/07/18 12:32:52;;;;;;;5.10;1.48;;;38.90;47.40;;;;;;5046383;28;20045;-69
2022/07/18 12:35:26;;;;;;;4.22;1.60;;;38.40;46.60;;;;;;5028619;28;20021;-69
2022/07/18 12:37:56;;;;;;;5.55;1.77;;;39.20;46.70;;;;;;5046461;28;20028;-68
2022/07/18 12:40:23;;;;;;;4.82;1.50;;;38.40;46.70;;;;;;5045071;28;20062;-69
2022/07/18 12:42:49;;;;;;;4.97;1.60;;;38.70;46.80;;;;;;5045104;28;20219;-69
2022/07/18 12:45:15;;;;;;;6.40;1.75;;;39.40;46.50;;;;;;5046914;28;20132;-69
2022/07/18 12:47:41;;;;;;;;;;;39.40;47.60;;;;;;5046343;28;20093;-69
2022/07/18 12:50:07;;;;;;;5.78;1.60;;;39.10;45.50;;;;;;5046414;28;19913;-68
2022/07/18 12:52:34;;;;;;;7.10;1.90;;;39.00;45.90;;;;;;5027312;28;20033;-69
2022/07/18 12:55:00;;;;;;;6.75;1.55;;;40.00;45.30;;;;;;5046376;28;20334;-69